createdAt,value
2022-09-12T00:01:19.686Z,15.25
2022-09-12T00:03:46.709Z,15.20
2022-09-12T00:06:21.962Z,15.15
2022-09-12T00:08:50.110Z,15.11
2022-09-12T00:11:16.700Z,15.11
2022-09-12T00:13:43.849Z,15.10
2022-09-12T00:16:22.897Z,15.07
2022-09-12T00:18:49.964Z,15.03
2022-09-12T00:21:18.111Z,15.00
2022-09-12T00:23:45.396Z,14.97
2022-09-12T00:26:12.955Z,14.97
2022-09-12T00:28:41.095Z,14.94
2022-09-12T00:31:14.421Z,14.91
2022-09-12T00:33:41.994Z,14.88
2022-09-12T00:36:15.265Z,14.85
2022-09-12T00:38:43.622Z,14.85
2022-09-12T00:41:22.291Z,14.79
2022-09-12T00:43:52.022Z,14.77
2022-09-12T00:46:48.688Z,14.77
2022-09-12T00:49:23.929Z,14.73
2022-09-12T00:52:03.471Z,14.68
2022-09-12T00:54:47.553Z,14.65
2022-09-12T00:57:16.564Z,14.63
2022-09-12T00:59:58.416Z,14.63
2022-09-12T01:02:25.423Z,14.62
2022-09-12T01:04:52.807Z,14.58
2022-09-12T01:07:21.341Z,14.54
2022-09-12T01:09:48.139Z,14.50
2022-09-12T01:12:16.017Z,14.50
2022-09-12T01:14:42.876Z,14.47
2022-09-12T01:17:13.034Z,14.43
2022-09-12T01:20:29.540Z,14.39
2022-09-12T01:22:59.103Z,14.37
2022-09-12T01:25:58.771Z,14.35
2022-09-12T01:28:34.240Z,14.31
2022-09-12T01:31:13.460Z,14.27
2022-09-12T01:33:42.701Z,14.25
2022-09-12T01:36:49.580Z,14.26
2022-09-12T01:39:29.258Z,14.24
2022-09-12T01:42:04.686Z,14.22
2022-09-12T01:44:37.166Z,14.20
2022-09-12T01:47:15.760Z,14.17
2022-09-12T01:50:06.966Z,14.12
2022-09-12T01:52:42.612Z,14.09
2022-09-12T01:55:21.704Z,14.07
2022-09-12T01:57:57.596Z,14.04
2022-09-12T02:00:24.371Z,14.02
2022-09-12T02:03:14.849Z,13.99
2022-09-12T02:05:48.976Z,13.96
2022-09-12T02:08:31.457Z,13.95
2022-09-12T02:11:04.595Z,13.94
2022-09-12T02:13:33.767Z,13.90
2022-09-12T02:16:09.546Z,13.85
2022-09-12T02:18:40.639Z,13.85
2022-09-12T02:21:07.966Z,13.84
2022-09-12T02:23:41.077Z,13.84
2022-09-12T02:26:15.238Z,13.82
2022-09-12T02:28:43.596Z,13.81
2022-09-12T02:31:32.298Z,13.80
2022-09-12T02:34:11.698Z,13.77
2022-09-12T02:37:16.432Z,13.73
2022-09-12T02:39:45.315Z,13.69
2022-09-12T02:42:13.349Z,13.64
2022-09-12T02:44:40.579Z,13.62
2022-09-12T02:47:28.284Z,13.62
2022-09-12T02:49:56.386Z,13.59
2022-09-12T02:52:23.404Z,13.58
2022-09-12T02:54:51.079Z,13.55
2022-09-12T02:57:22.791Z,13.52
2022-09-12T02:59:52.948Z,13.49
2022-09-12T03:02:38.287Z,13.47
2022-09-12T03:05:21.729Z,13.43
2022-09-12T03:08:13.381Z,13.38
2022-09-12T03:11:02.900Z,13.38
2022-09-12T03:13:54.294Z,13.36
2022-09-12T03:16:43.680Z,13.36
2022-09-12T03:19:29.427Z,13.36
2022-09-12T03:22:15.732Z,13.33
2022-09-12T03:25:02.850Z,13.31
2022-09-12T03:27:38.942Z,13.27
2022-09-12T03:30:06.767Z,13.27
2022-09-12T03:32:50.159Z,13.28
2022-09-12T03:35:22.825Z,13.27
2022-09-12T03:37:51.039Z,13.22
2022-09-12T03:40:17.847Z,13.20
2022-09-12T03:42:44.588Z,13.19
2022-09-12T03:45:11.914Z,13.14
2022-09-12T03:47:38.463Z,13.11
2022-09-12T03:50:06.550Z,13.08
2022-09-12T03:52:33.590Z,13.09
2022-09-12T03:55:00.374Z,13.07
2022-09-12T03:57:26.895Z,13.07
2022-09-12T03:59:53.391Z,13.07
2022-09-12T04:02:20.026Z,13.06
2022-09-12T04:04:48.768Z,13.05
2022-09-12T04:07:16.732Z,13.04
2022-09-12T04:09:43.775Z,13.04
2022-09-12T04:12:10.341Z,13.03
2022-09-12T04:14:36.954Z,13.04
2022-09-12T04:17:03.742Z,13.04
2022-09-12T04:19:30.265Z,13.03
2022-09-12T04:21:57.003Z,13.04
2022-09-12T04:24:23.539Z,13.03
2022-09-12T04:26:50.210Z,13.02
2022-09-12T04:29:16.803Z,13.02
2022-09-12T04:31:43.550Z,13.03
2022-09-12T04:34:10.422Z,13.01
2022-09-12T04:36:37.827Z,13.00
2022-09-12T04:39:05.492Z,13.01
2022-09-12T04:41:38.444Z,13.00
2022-09-12T04:44:14.436Z,13.00
2022-09-12T04:46:45.783Z,13.00
2022-09-12T04:49:14.065Z,13.01
2022-09-12T04:51:42.446Z,13.02
2022-09-12T04:54:15.937Z,13.00
2022-09-12T04:56:44.587Z,13.00
2022-09-12T04:59:13.247Z,13.00
2022-09-12T05:01:40.369Z,13.01
2022-09-12T05:04:07.429Z,13.01
2022-09-12T05:06:36.091Z,13.01
2022-09-12T05:09:05.825Z,13.04
2022-09-12T05:12:02.823Z,13.03
2022-09-12T05:14:24.376Z,13.09
2022-09-12T05:16:51.134Z,13.13
2022-09-12T05:19:17.750Z,13.17
2022-09-12T05:21:44.451Z,13.19
2022-09-12T05:24:11.588Z,13.25
2022-09-12T05:26:39.231Z,13.32
2022-09-12T05:29:07.092Z,13.38
2022-09-12T05:31:34.887Z,13.41
2022-09-12T05:34:05.885Z,13.48
2022-09-12T05:36:32.933Z,13.55
2022-09-12T05:39:00.648Z,13.63
2022-09-12T05:41:30.728Z,13.71
2022-09-12T05:43:59.913Z,13.78
2022-09-12T05:46:29.490Z,13.88
2022-09-12T05:48:56.850Z,13.98
2022-09-12T05:51:29.122Z,14.09
2022-09-12T05:53:57.682Z,14.21
2022-09-12T05:56:27.363Z,14.30
2022-09-12T05:59:14.631Z,14.45
2022-09-12T06:01:41.644Z,14.54
2022-09-12T06:04:09.776Z,14.67
2022-09-12T06:06:41.511Z,14.92
2022-09-12T06:09:08.499Z,15.26
2022-09-12T06:11:37.365Z,15.48
2022-09-12T06:14:04.648Z,15.57
2022-09-12T06:16:33.317Z,15.62
2022-09-12T06:19:02.410Z,15.63
2022-09-12T06:21:31.215Z,15.65
2022-09-12T06:23:58.979Z,15.64
2022-09-12T06:26:28.027Z,15.64
2022-09-12T06:28:56.083Z,15.66
2022-09-12T06:31:36.450Z,15.68
2022-09-12T06:34:05.914Z,15.68
2022-09-12T06:36:37.788Z,15.69
2022-09-12T06:39:09.917Z,15.71
2022-09-12T06:41:39.408Z,15.72
2022-09-12T06:44:16.177Z,15.72
2022-09-12T06:46:43.167Z,15.75
2022-09-12T06:49:10.076Z,15.79
2022-09-12T06:51:37.877Z,15.82
2022-09-12T06:54:05.483Z,15.86
2022-09-12T06:56:32.100Z,15.87
2022-09-12T06:58:59.471Z,15.88
2022-09-12T07:01:31.067Z,15.90
2022-09-12T07:04:00.388Z,15.92
2022-09-12T07:06:31.892Z,15.93
2022-09-12T07:09:00.117Z,15.96
2022-09-12T07:11:30.544Z,15.97
2022-09-12T07:13:59.172Z,16.00
2022-09-12T07:16:25.848Z,16.03
2022-09-12T07:18:54.967Z,16.07
2022-09-12T07:21:21.900Z,16.10
2022-09-12T07:23:49.266Z,16.16
2022-09-12T07:26:16.587Z,16.20
2022-09-12T07:28:43.780Z,16.29
2022-09-12T07:31:16.406Z,16.40
2022-09-12T07:33:44.112Z,16.52
2022-09-12T07:36:14.145Z,16.62
2022-09-12T07:38:41.348Z,16.71
2022-09-12T07:41:12.790Z,16.80
2022-09-12T07:43:39.488Z,16.87
2022-09-12T07:46:06.596Z,16.94
2022-09-12T07:48:33.897Z,17.02
2022-09-12T07:51:02.152Z,17.08
2022-09-12T07:53:34.409Z,17.16
2022-09-12T07:56:01.083Z,17.24
2022-09-12T07:58:27.615Z,17.31
2022-09-12T08:00:54.167Z,17.42
2022-09-12T08:03:20.918Z,17.51
2022-09-12T08:05:47.400Z,17.58
2022-09-12T08:08:14.009Z,17.67
2022-09-12T08:10:40.518Z,17.70
2022-09-12T08:13:10.644Z,17.79
2022-09-12T08:15:37.451Z,17.90
2022-09-12T08:18:04.197Z,17.99
2022-09-12T08:20:31.019Z,18.07
2022-09-12T08:22:57.535Z,18.12
2022-09-12T08:25:24.208Z,18.20
2022-09-12T08:27:50.745Z,18.26
2022-09-12T08:30:17.376Z,18.34
2022-09-12T08:32:43.943Z,18.43
2022-09-12T08:35:10.497Z,18.54
2022-09-12T08:37:37.073Z,18.61
2022-09-12T08:40:06.776Z,18.69
2022-09-12T08:43:14.230Z,18.79
2022-09-12T08:45:54.517Z,18.87
2022-09-12T08:48:21.291Z,18.94
2022-09-12T08:50:49.967Z,19.10
2022-09-12T08:53:21.492Z,19.25
2022-09-12T08:55:56.368Z,19.32
2022-09-12T08:58:24.867Z,19.45
2022-09-12T09:01:19.839Z,19.63
2022-09-12T09:04:20.665Z,19.78
2022-09-12T09:06:53.189Z,19.93
2022-09-12T09:09:57.372Z,20.14
2022-09-12T09:12:38.669Z,20.35
2022-09-12T09:15:27.006Z,20.48
2022-09-12T09:18:10.849Z,20.59
2022-09-12T09:20:47.207Z,20.72
2022-09-12T09:23:21.939Z,20.78
2022-09-12T09:26:26.500Z,20.84
2022-09-12T09:29:04.883Z,20.93
2022-09-12T09:31:37.674Z,20.99
2022-09-12T09:34:14.051Z,21.04
2022-09-12T09:36:57.872Z,21.08
2022-09-12T09:39:28.792Z,21.20
2022-09-12T09:42:10.445Z,21.34
2022-09-12T09:44:37.917Z,21.44
2022-09-12T09:47:05.340Z,21.45
2022-09-12T09:49:34.421Z,21.49
2022-09-12T09:52:02.518Z,21.56
2022-09-12T09:54:44.606Z,21.68
2022-09-12T09:57:44.624Z,21.85
2022-09-12T10:00:29.820Z,21.93
2022-09-12T10:03:14.929Z,22.01
2022-09-12T10:05:48.632Z,22.10
2022-09-12T10:08:32.645Z,22.24
2022-09-12T10:11:20.844Z,22.38
2022-09-12T10:13:51.175Z,22.51
2022-09-12T10:16:22.615Z,22.64
2022-09-12T10:18:52.454Z,22.72
2022-09-12T10:21:29.626Z,22.75
2022-09-12T10:24:06.611Z,22.78
2022-09-12T10:26:37.568Z,22.84
2022-09-12T10:29:16.107Z,22.88
2022-09-12T10:31:55.596Z,22.94
2022-09-12T10:34:31.118Z,22.95
2022-09-12T10:37:04.585Z,22.99
2022-09-12T10:39:33.441Z,23.03
2022-09-12T10:42:01.431Z,23.05
2022-09-12T10:44:31.014Z,23.06
2022-09-12T10:46:59.031Z,23.10
2022-09-12T10:49:29.617Z,23.09
2022-09-12T10:51:59.695Z,23.09
2022-09-12T10:54:28.595Z,23.05
2022-09-12T10:57:06.829Z,23.08
2022-09-12T11:00:27.763Z,23.10
2022-09-12T11:02:59.414Z,23.15
2022-09-12T11:05:44.072Z,23.21
2022-09-12T11:08:13.259Z,23.26
2022-09-12T11:10:54.541Z,23.28
2022-09-12T11:13:29.983Z,23.32
2022-09-12T11:16:11.623Z,23.34
2022-09-12T11:18:45.018Z,23.36
2022-09-12T11:21:23.839Z,23.38
2022-09-12T11:24:12.939Z,23.40
2022-09-12T11:26:53.331Z,23.41
2022-09-12T11:29:47.252Z,23.48
2022-09-12T11:32:16.767Z,23.58
2022-09-12T11:35:31.289Z,23.60
2022-09-12T11:38:16.333Z,23.65
2022-09-12T11:40:46.484Z,23.72
2022-09-12T11:43:25.968Z,23.80
2022-09-12T11:45:53.346Z,23.75
2022-09-12T11:48:49.197Z,23.77
2022-09-12T11:51:33.148Z,23.87
2022-09-12T11:54:14.099Z,23.99
2022-09-12T11:56:46.336Z,23.97
2022-09-12T11:59:26.024Z,24.02
2022-09-12T12:01:59.677Z,24.08
2022-09-12T12:04:37.070Z,24.18
2022-09-12T12:07:11.378Z,24.32
2022-09-12T12:09:50.316Z,24.33
2022-09-12T12:12:25.008Z,24.32
2022-09-12T12:14:54.834Z,24.40
2022-09-12T12:17:24.429Z,24.45
2022-09-12T12:20:05.563Z,24.37
2022-09-12T12:22:34.272Z,24.31
2022-09-12T12:25:12.802Z,24.35
2022-09-12T12:27:47.454Z,24.42
2022-09-12T12:30:29.408Z,24.44
2022-09-12T12:33:13.001Z,24.37
2022-09-12T12:35:46.834Z,24.29
2022-09-12T12:38:32.115Z,24.26
2022-09-12T12:41:17.032Z,24.42
2022-09-12T12:43:51.504Z,24.52
2022-09-12T12:46:26.848Z,24.51
2022-09-12T12:48:59.951Z,24.52
2022-09-12T12:51:31.864Z,24.52
2022-09-12T12:54:01.177Z,24.48
2022-09-12T12:56:42.419Z,24.41
2022-09-12T12:59:17.936Z,24.39
2022-09-12T13:01:51.538Z,24.45
2022-09-12T13:04:24.777Z,24.45
2022-09-12T13:07:07.206Z,24.48
2022-09-12T13:09:39.653Z,24.52
2022-09-12T13:12:06.264Z,24.59
2022-09-12T13:14:53.977Z,24.58
2022-09-12T13:17:35.690Z,24.54
2022-09-12T13:20:29.729Z,24.55
2022-09-12T13:22:57.746Z,24.59
2022-09-12T13:25:37.069Z,24.63
2022-09-12T13:28:11.500Z,24.58
2022-09-12T13:30:42.626Z,24.53
2022-09-12T13:33:23.603Z,24.46
2022-09-12T13:35:59.025Z,24.42
2022-09-12T13:38:36.963Z,24.45
2022-09-12T13:41:45.460Z,24.47
2022-09-12T13:44:15.987Z,24.52
2022-09-12T13:46:42.798Z,24.56
2022-09-12T13:49:28.259Z,24.55
2022-09-12T13:52:23.077Z,24.52
2022-09-12T13:54:54.121Z,24.54
2022-09-12T13:57:30.626Z,24.51
2022-09-12T13:59:58.978Z,24.55
2022-09-12T14:02:28.844Z,24.57
2022-09-12T14:05:11.480Z,24.56
2022-09-12T14:07:56.123Z,24.54
2022-09-12T14:10:33.572Z,24.53
2022-09-12T14:13:02.800Z,24.54
2022-09-12T14:15:32.253Z,24.52
2022-09-12T14:18:01.526Z,24.54
2022-09-12T14:20:33.807Z,24.55
2022-09-12T14:23:04.238Z,24.58
2022-09-12T14:25:41.104Z,24.53
2022-09-12T14:28:13.560Z,24.54
2022-09-12T14:30:40.836Z,24.54
2022-09-12T14:33:10.178Z,24.52
2022-09-12T14:35:44.502Z,24.53
2022-09-12T14:38:16.860Z,24.57
2022-09-12T14:41:10.784Z,24.58
2022-09-12T14:43:42.544Z,24.59
2022-09-12T14:46:39.698Z,24.53
2022-09-12T14:49:21.111Z,24.52
2022-09-12T14:51:51.501Z,24.46
2022-09-12T14:54:40.184Z,24.35
2022-09-12T14:57:28.075Z,24.35
2022-09-12T15:00:09.570Z,24.34
2022-09-12T15:02:36.109Z,24.34
2022-09-12T15:05:08.952Z,24.34
2022-09-12T15:07:41.068Z,24.28
2022-09-12T15:10:27.934Z,24.18
2022-09-12T15:13:09.482Z,24.12
2022-09-12T15:15:38.122Z,24.10
2022-09-12T15:18:06.818Z,24.07
2022-09-12T15:20:36.445Z,24.08
2022-09-12T15:23:03.303Z,24.08
2022-09-12T15:25:29.861Z,24.06
2022-09-12T15:27:56.518Z,24.06
2022-09-12T15:30:23.092Z,24.04
2022-09-12T15:32:49.714Z,24.03
2022-09-12T15:35:18.025Z,24.02
2022-09-12T15:37:45.275Z,24.02
2022-09-12T15:40:13.198Z,24.02
2022-09-12T15:42:40.250Z,24.00
2022-09-12T15:45:27.736Z,24.00
2022-09-12T15:47:55.374Z,23.99
2022-09-12T15:50:22.104Z,24.00
2022-09-12T15:52:48.741Z,24.00
2022-09-12T15:55:18.736Z,23.98
2022-09-12T15:57:45.799Z,23.99
2022-09-12T16:00:14.156Z,23.97
2022-09-12T16:02:40.985Z,23.96
2022-09-12T16:05:17.331Z,23.93
2022-09-12T16:07:44.651Z,23.90
2022-09-12T16:10:16.378Z,23.86
2022-09-12T16:12:43.345Z,23.83
2022-09-12T16:15:16.896Z,23.79
2022-09-12T16:17:43.427Z,23.76
2022-09-12T16:20:10.479Z,23.74
2022-09-12T16:22:37.482Z,23.69
2022-09-12T16:25:05.050Z,23.66
2022-09-12T16:27:32.567Z,23.64
2022-09-12T16:29:59.273Z,23.60
2022-09-12T16:32:25.879Z,23.55
2022-09-12T16:34:52.889Z,23.54
2022-09-12T16:37:19.458Z,23.54
2022-09-12T16:39:46.440Z,23.52
2022-09-12T16:42:13.113Z,23.50
2022-09-12T16:44:39.604Z,23.48
2022-09-12T16:47:07.142Z,23.45
2022-09-12T16:49:33.715Z,23.43
2022-09-12T16:52:00.288Z,23.39
2022-09-12T16:54:26.814Z,23.35
2022-09-12T16:56:53.315Z,23.30
2022-09-12T16:59:19.837Z,23.28
2022-09-12T17:01:46.526Z,23.24
2022-09-12T17:04:13.152Z,23.21
2022-09-12T17:06:40.049Z,23.15
2022-09-12T17:09:06.625Z,23.10
2022-09-12T17:11:36.468Z,23.07
2022-09-12T17:14:06.977Z,23.02
2022-09-12T17:16:36.504Z,22.95
2022-09-12T17:19:03.430Z,22.88
2022-09-12T17:21:30.133Z,22.82
2022-09-12T17:23:56.856Z,22.76
2022-09-12T17:26:23.439Z,22.69
2022-09-12T17:28:50.161Z,22.64
2022-09-12T17:31:17.339Z,22.55
2022-09-12T17:33:43.929Z,22.48
2022-09-12T17:36:16.370Z,22.41
2022-09-12T17:38:44.825Z,22.33
2022-09-12T17:41:23.703Z,22.26
2022-09-12T17:43:58.886Z,22.18
2022-09-12T17:46:32.861Z,22.10
2022-09-12T17:49:01.047Z,22.02
2022-09-12T17:51:31.200Z,21.96
2022-09-12T17:53:59.240Z,21.87
2022-09-12T17:56:27.998Z,21.81
2022-09-12T17:58:56.430Z,21.75
2022-09-12T18:01:42.106Z,21.67
2022-09-12T18:04:08.849Z,21.60
2022-09-12T18:06:35.632Z,21.55
2022-09-12T18:09:05.406Z,21.47
2022-09-12T18:11:32.997Z,21.40
2022-09-12T18:14:00.117Z,21.34
2022-09-12T18:16:28.538Z,21.25
2022-09-12T18:18:55.685Z,21.18
2022-09-12T18:21:22.252Z,21.12
2022-09-12T18:23:48.814Z,21.07
2022-09-12T18:26:15.457Z,21.01
2022-09-12T18:28:44.235Z,20.95
2022-09-12T18:31:19.805Z,20.89
2022-09-12T18:33:47.211Z,20.82
2022-09-12T18:36:15.670Z,20.76
2022-09-12T18:38:43.258Z,20.70
2022-09-12T18:41:12.368Z,20.67
2022-09-12T18:43:39.448Z,20.61
2022-09-12T18:46:12.548Z,20.56
2022-09-12T18:48:39.230Z,20.50
2022-09-12T18:51:08.657Z,20.47
2022-09-12T18:53:36.770Z,20.44
2022-09-12T18:56:06.367Z,20.40
2022-09-12T18:58:32.856Z,20.37
2022-09-12T19:00:59.413Z,20.35
2022-09-12T19:03:26.318Z,20.29
2022-09-12T19:05:53.326Z,20.24
2022-09-12T19:08:19.893Z,20.18
2022-09-12T19:10:55.051Z,20.13
2022-09-12T19:13:21.846Z,20.10
2022-09-12T19:15:48.449Z,20.06
2022-09-12T19:18:15.790Z,20.03
2022-09-12T19:20:42.344Z,20.02
2022-09-12T19:23:08.970Z,19.99
2022-09-12T19:25:35.546Z,19.98
2022-09-12T19:28:02.320Z,19.95
2022-09-12T19:30:28.889Z,19.93
2022-09-12T19:32:55.483Z,19.89
2022-09-12T19:35:23.083Z,19.84
2022-09-12T19:37:49.825Z,19.82
2022-09-12T19:40:16.442Z,19.79
2022-09-12T19:42:43.029Z,19.74
2022-09-12T19:45:10.365Z,19.72
2022-09-12T19:47:38.219Z,19.68
2022-09-12T19:50:05.399Z,19.64
2022-09-12T19:52:31.929Z,19.61
2022-09-12T19:54:58.501Z,19.61
2022-09-12T19:57:25.022Z,19.56
2022-09-12T19:59:51.577Z,19.55
2022-09-12T20:02:18.387Z,19.52
2022-09-12T20:04:45.415Z,19.51
2022-09-12T20:07:11.960Z,19.48
2022-09-12T20:09:38.585Z,19.47
2022-09-12T20:12:05.527Z,19.45
2022-09-12T20:14:32.137Z,19.43
2022-09-12T20:16:58.682Z,19.41
2022-09-12T20:19:25.506Z,19.36
2022-09-12T20:21:52.097Z,19.32
2022-09-12T20:24:18.692Z,19.27
2022-09-12T20:26:45.381Z,19.22
2022-09-12T20:29:12.129Z,19.17
2022-09-12T20:31:40.951Z,19.13
2022-09-12T20:34:10.529Z,19.08
2022-09-12T20:36:37.074Z,19.06
2022-09-12T20:39:03.769Z,19.03
2022-09-12T20:41:33.268Z,19.00
2022-09-12T20:44:00.135Z,18.97
2022-09-12T20:46:28.086Z,18.90
2022-09-12T20:48:55.089Z,18.89
2022-09-12T20:51:22.546Z,18.85
2022-09-12T20:53:53.416Z,18.80
2022-09-12T20:56:20.298Z,18.80
2022-09-12T20:58:46.887Z,18.77
2022-09-12T21:01:15.976Z,18.74
2022-09-12T21:03:43.969Z,18.77
2022-09-12T21:06:14.794Z,18.75
2022-09-12T21:08:41.386Z,18.70
2022-09-12T21:11:07.999Z,18.66
2022-09-12T21:13:35.152Z,18.65
2022-09-12T21:16:21.998Z,18.64
2022-09-12T21:18:54.999Z,18.65
2022-09-12T21:21:22.080Z,18.64
2022-09-12T21:23:50.614Z,18.67
2022-09-12T21:26:18.319Z,18.69
2022-09-12T21:28:44.995Z,18.69
2022-09-12T21:31:11.606Z,18.72
2022-09-12T21:33:38.346Z,18.75
2022-09-12T21:36:06.681Z,18.75
2022-09-12T21:38:33.896Z,18.76
2022-09-12T21:41:15.034Z,18.78
2022-09-12T21:43:43.227Z,18.77
2022-09-12T21:46:11.060Z,18.76
2022-09-12T21:48:37.778Z,18.74
2022-09-12T21:51:04.654Z,18.71
2022-09-12T21:53:32.147Z,18.68
2022-09-12T21:56:07.857Z,18.64
2022-09-12T21:58:34.943Z,18.59
2022-09-12T22:01:02.019Z,18.57
2022-09-12T22:03:29.258Z,18.54
2022-09-12T22:06:00.533Z,18.57
2022-09-12T22:08:29.374Z,18.56
2022-09-12T22:11:07.995Z,18.56
2022-09-12T22:13:35.611Z,18.55
2022-09-12T22:16:03.519Z,18.56
2022-09-12T22:18:32.422Z,18.52
2022-09-12T22:21:05.000Z,18.51
2022-09-12T22:23:50.823Z,18.50
2022-09-12T22:26:17.546Z,18.48
2022-09-12T22:28:44.166Z,18.47
2022-09-12T22:31:12.654Z,18.48
2022-09-12T22:33:40.112Z,18.46
2022-09-12T22:36:07.376Z,18.47
2022-09-12T22:38:34.002Z,18.46
2022-09-12T22:41:10.361Z,18.46
2022-09-12T22:43:37.624Z,18.45
2022-09-12T22:46:12.532Z,18.47
2022-09-12T22:48:39.809Z,18.46
2022-09-12T22:51:07.418Z,18.46
2022-09-12T22:53:35.230Z,18.47
2022-09-12T22:56:02.388Z,18.49
2022-09-12T22:58:29.029Z,18.48
2022-09-12T23:00:55.527Z,18.48
2022-09-12T23:03:23.663Z,18.50
2022-09-12T23:05:50.226Z,18.51
2022-09-12T23:08:19.318Z,18.51
2022-09-12T23:10:46.049Z,18.53
2022-09-12T23:13:12.885Z,18.53
2022-09-12T23:15:39.479Z,18.54
2022-09-12T23:18:06.005Z,18.55
2022-09-12T23:20:59.587Z,18.58
2022-09-12T23:23:26.659Z,18.59
2022-09-12T23:26:05.054Z,18.60
2022-09-12T23:28:32.237Z,18.61
2022-09-12T23:31:00.264Z,18.62
2022-09-12T23:33:30.698Z,18.62
2022-09-12T23:36:01.793Z,18.63
2022-09-12T23:38:32.471Z,18.63
2022-09-12T23:41:00.335Z,18.64
2022-09-12T23:43:27.601Z,18.65
2022-09-12T23:45:54.183Z,18.63
2022-09-12T23:48:20.901Z,18.63
2022-09-12T23:50:48.780Z,18.62
2022-09-12T23:53:17.645Z,18.63
2022-09-12T23:55:47.865Z,18.62
2022-09-12T23:58:16.578Z,18.63
